Portada
METAR-TAF:

METAR-TAF

Aeropuertos :

Aeropuerto Internacional de Yamena

Yamena, Chad

latitud: 12-08N, longitud: 015-02E, altitud: 295 m

Observación

El informe se hizo hace 20 minutos, a las 17:00 UTC
Viento 6 kt del noroeste
Temperatura 30°C
Humedad 14%
Presión 1010 hPa
Visibilidad: 8000 m

METAR: FTTJ 111700Z 32006KT 8000 NSC 30/00 Q1010 NOSIG

Hora: 18:20 (17:20 UTC)

Pronóstico

El informe se hizo hace 6 horas y 20 minutos, a las 11:00 UTC
Pronóstico válido del 11 a las 12 UTC al 12 a las 18 UTC
Viento 10 kt del norte-noreste
Visibilidad: 8000 m
Temporalmente
del 11 a las 16 UTC al 12 a las 07 UTC
Viento 4 kt del norte-noroeste
Temporalmente
del 12 a las 03 UTC al 12 a las 07 UTC
Visibilidad: 4000 m
calima

TAF: FTTJ 111100Z 1112/1218 02010KT 8000 NSC TEMPO 1116/1207 34004KT TEMPO 1203/1207 4000 HZ

Observaciones y pronósticos meteorológicos de más de 4000 aeropuertos (mensajes METAR y TAF).

Los puntos amarillos y rojos representan las estaciones disponibles.

Ponga el ratón en el punto deseado para ver el nombre de la estación.

Haga clic para ver las observaciones y los pronósticos meteorológicos.

Para cambiar el mapa : haga clic en los botones verdes con una cruz de color negro para hacer un zoom, en el botón verde con un guión para alejar o en las flechas verdes para mapas adyacentes.


METAR-TAF: